createdAt,value
2023-05-06T00:02:57.569Z,97039.23
2023-05-06T00:13:00.805Z,97041.54
2023-05-06T00:23:03.949Z,97052.36
2023-05-06T00:33:07.385Z,97061.78
2023-05-06T00:43:10.748Z,97052.33
2023-05-06T00:53:14.211Z,97045.08
2023-05-06T01:03:17.562Z,97047.36
2023-05-06T01:14:01.618Z,97045.13
2023-05-06T01:24:04.944Z,97040.98
2023-05-06T01:34:24.215Z,97032.44
2023-05-06T01:44:29.565Z,97031.77
2023-05-06T01:54:32.767Z,97032.31
2023-05-06T02:04:38.002Z,97026.80
2023-05-06T02:14:41.907Z,97027.14
2023-05-06T02:24:45.049Z,97030.09
2023-05-06T02:34:49.469Z,97025.20
2023-05-06T02:44:52.593Z,97019.79
2023-05-06T02:54:55.957Z,97022.30
2023-05-06T03:04:59.257Z,97013.67
2023-05-06T03:15:02.644Z,97009.38
2023-05-06T03:25:06.432Z,96999.66
2023-05-06T03:35:11.698Z,96996.62
2023-05-06T03:45:17.863Z,96985.88
2023-05-06T03:55:21.727Z,96998.56
2023-05-06T04:05:26.156Z,96988.60
2023-05-06T04:15:32.431Z,96990.08
2023-05-06T04:25:38.143Z,96998.06
2023-05-06T04:35:53.943Z,97004.14
2023-05-06T04:45:57.437Z,97005.20
2023-05-06T04:56:03.535Z,97009.90
2023-05-06T05:06:07.890Z,97008.48
2023-05-06T05:16:12.263Z,97003.61
2023-05-06T05:26:16.654Z,96997.69
2023-05-06T05:36:22.020Z,96993.48
2023-05-06T05:46:26.784Z,96983.65
2023-05-06T05:56:31.073Z,96970.14
2023-05-06T06:06:35.371Z,96961.59
2023-05-06T06:16:38.952Z,96955.69
2023-05-06T06:26:42.349Z,96941.61
2023-05-06T06:36:45.895Z,96937.13
2023-05-06T06:46:49.091Z,96935.84
2023-05-06T06:56:56.605Z,96925.16
2023-05-06T07:06:59.944Z,96922.69
2023-05-06T07:17:03.302Z,96918.89
2023-05-06T07:27:07.235Z,96908.64
2023-05-06T07:37:10.538Z,96892.50
2023-05-06T07:47:27.589Z,96883.28
2023-05-06T07:57:31.106Z,96873.53
2023-05-06T08:07:34.385Z,96861.64
2023-05-06T08:17:37.482Z,96853.20
2023-05-06T08:27:40.965Z,96845.12
2023-05-06T08:37:44.114Z,96836.52
2023-05-06T08:47:47.848Z,96824.37
2023-05-06T08:57:53.386Z,96812.93
2023-05-06T09:07:56.681Z,96801.03
2023-05-06T09:18:00.974Z,96800.49
2023-05-06T09:28:10.178Z,96794.77
2023-05-06T09:38:13.339Z,96782.55
2023-05-06T09:48:16.729Z,96771.45
2023-05-06T09:58:22.644Z,96749.79
2023-05-06T10:08:27.166Z,96729.75
2023-05-06T10:18:31.170Z,96709.93
2023-05-06T10:28:41.177Z,96693.64
2023-05-06T10:38:49.362Z,96676.09
2023-05-06T10:49:04.872Z,96656.83
2023-05-06T10:59:09.171Z,96641.10
2023-05-06T11:09:23.612Z,96643.73
2023-05-06T11:19:31.074Z,96659.73
2023-05-06T11:29:34.274Z,96684.05
2023-05-06T11:39:40.888Z,96721.64
2023-05-06T11:49:44.466Z,96752.05
2023-05-06T11:59:54.813Z,96780.42
2023-05-06T12:09:59.279Z,96787.23
2023-05-06T12:20:02.949Z,96805.92
2023-05-06T12:30:09.457Z,96804.64
2023-05-06T12:40:17.880Z,96819.00
2023-05-06T12:50:39.312Z,96803.45
2023-05-06T13:00:42.466Z,96795.57
2023-05-06T13:10:45.917Z,96773.40
2023-05-06T13:21:02.469Z,96771.42
2023-05-06T13:31:18.198Z,96765.23
2023-05-06T13:41:25.520Z,96763.42
2023-05-06T13:51:30.947Z,96757.20
2023-05-06T14:01:34.283Z,96758.69
2023-05-06T14:11:37.534Z,96746.08
2023-05-06T14:21:40.651Z,96735.91
2023-05-06T14:31:43.866Z,96725.52
2023-05-06T14:41:47.284Z,96726.14
2023-05-06T14:51:50.527Z,96722.80
2023-05-06T15:01:53.590Z,96720.33
2023-05-06T15:11:57.686Z,96724.55
2023-05-06T15:22:01.060Z,96730.34
2023-05-06T15:32:19.359Z,96737.23
2023-05-06T15:42:24.231Z,96733.52
2023-05-06T15:52:27.352Z,96734.52
2023-05-06T16:02:31.005Z,96729.92
2023-05-06T16:12:34.661Z,96733.52
2023-05-06T16:22:40.758Z,96741.21
2023-05-06T16:32:44.358Z,96741.80
2023-05-06T16:42:51.149Z,96743.56
2023-05-06T16:52:54.290Z,96746.74
2023-05-06T17:02:58.965Z,96745.52
2023-05-06T17:13:03.290Z,96742.66
2023-05-06T17:23:08.969Z,96750.85
2023-05-06T17:33:12.114Z,96759.91
2023-05-06T17:43:15.476Z,96760.65
2023-05-06T17:53:18.509Z,96762.66
2023-05-06T18:03:22.743Z,96779.67
2023-05-06T18:13:27.348Z,96788.48
2023-05-06T18:23:30.738Z,96795.62
2023-05-06T18:33:36.007Z,96818.30
2023-05-06T18:43:39.186Z,96822.34
2023-05-06T18:53:43.174Z,96825.21
2023-05-06T19:03:47.019Z,96835.46
2023-05-06T19:13:52.669Z,96846.89
2023-05-06T19:23:59.949Z,96855.18
2023-05-06T19:34:04.141Z,96864.96
2023-05-06T19:44:07.527Z,96869.66
2023-05-06T19:54:10.569Z,96861.46
2023-05-06T20:04:13.751Z,96861.29
2023-05-06T20:14:16.909Z,96862.20
2023-05-06T20:24:20.392Z,96862.06
2023-05-06T20:34:24.202Z,96863.54
2023-05-06T20:44:27.536Z,96870.67
2023-05-06T20:54:30.557Z,96867.25
2023-05-06T21:04:33.970Z,96864.76
2023-05-06T21:14:38.029Z,96866.69
2023-05-06T21:24:41.080Z,96879.27
2023-05-06T21:34:46.887Z,96883.14
2023-05-06T21:44:50.394Z,96888.85
2023-05-06T21:54:53.632Z,96895.58
2023-05-06T22:04:56.813Z,96908.86
2023-05-06T22:15:00.072Z,96914.62
2023-05-06T22:25:04.024Z,96919.32
2023-05-06T22:35:08.674Z,96920.48
2023-05-06T22:45:12.322Z,96911.89
2023-05-06T22:55:16.291Z,96908.16
2023-05-06T23:05:19.447Z,96904.98
2023-05-06T23:15:23.402Z,96904.29
2023-05-06T23:25:27.690Z,96897.02
2023-05-06T23:35:30.852Z,96905.80
2023-05-06T23:45:34.033Z,96903.36
2023-05-06T23:55:37.584Z,96897.16
